sensor_id;sensor_type;location;lat;lon;timestamp;P1;durP1;ratioP1;P2;durP2;ratioP2
13847;SDS011;6994;49.752;6.094;2023-02-01T00:01:22;14.82;;;8.45;;
13847;SDS011;6994;49.752;6.094;2023-02-01T00:03:50;14.65;;;7.80;;
13847;SDS011;6994;49.752;6.094;2023-02-01T00:06:17;9.10;;;6.60;;
13847;SDS011;6994;49.752;6.094;2023-02-01T00:08:45;11.57;;;8.38;;
13847;SDS011;6994;49.752;6.094;2023-02-01T00:11:12;11.48;;;7.78;;
13847;SDS011;6994;49.752;6.094;2023-02-01T00:13:40;11.30;;;6.60;;
13847;SDS011;6994;49.752;6.094;2023-02-01T00:16:13;13.70;;;6.55;;
13847;SDS011;6994;49.752;6.094;2023-02-01T00:18:40;11.43;;;7.47;;
13847;SDS011;6994;49.752;6.094;2023-02-01T00:21:11;9.30;;;5.57;;
13847;SDS011;6994;49.752;6.094;2023-02-01T00:23:38;12.15;;;7.37;;
13847;SDS011;6994;49.752;6.094;2023-02-01T00:26:06;10.65;;;7.22;;
13847;SDS011;6994;49.752;6.094;2023-02-01T00:28:33;11.52;;;7.82;;
13847;SDS011;6994;49.752;6.094;2023-02-01T00:31:00;12.68;;;6.60;;
13847;SDS011;6994;49.752;6.094;2023-02-01T00:33:27;10.20;;;6.22;;
13847;SDS011;6994;49.752;6.094;2023-02-01T00:35:57;10.15;;;6.65;;
13847;SDS011;6994;49.752;6.094;2023-02-01T00:38:25;9.75;;;6.43;;
13847;SDS011;6994;49.752;6.094;2023-02-01T00:40:51;9.25;;;6.70;;
13847;SDS011;6994;49.752;6.094;2023-02-01T00:43:19;14.85;;;9.13;;
13847;SDS011;6994;49.752;6.094;2023-02-01T00:45:46;10.00;;;6.97;;
13847;SDS011;6994;49.752;6.094;2023-02-01T00:48:13;13.70;;;9.70;;
13847;SDS011;6994;49.752;6.094;2023-02-01T00:50:43;12.52;;;7.72;;
13847;SDS011;6994;49.752;6.094;2023-02-01T00:53:10;6.55;;;5.85;;
13847;SDS011;6994;49.752;6.094;2023-02-01T00:55:39;11.15;;;6.55;;
13847;SDS011;6994;49.752;6.094;2023-02-01T00:58:05;8.93;;;5.50;;
13847;SDS011;6994;49.752;6.094;2023-02-01T01:00:33;9.73;;;6.80;;
13847;SDS011;6994;49.752;6.094;2023-02-01T01:03:00;7.97;;;4.93;;
13847;SDS011;6994;49.752;6.094;2023-02-01T01:05:27;8.13;;;5.93;;
13847;SDS011;6994;49.752;6.094;2023-02-01T01:07:54;9.82;;;6.70;;
13847;SDS011;6994;49.752;6.094;2023-02-01T01:10:21;13.25;;;9.38;;
13847;SDS011;6994;49.752;6.094;2023-02-01T01:12:49;14.07;;;7.85;;
13847;SDS011;6994;49.752;6.094;2023-02-01T01:15:16;12.02;;;7.05;;
13847;SDS011;6994;49.752;6.094;2023-02-01T01:17:43;16.15;;;10.40;;
13847;SDS011;6994;49.752;6.094;2023-02-01T01:20:10;13.95;;;8.10;;
13847;SDS011;6994;49.752;6.094;2023-02-01T01:22:38;9.68;;;7.50;;
13847;SDS011;6994;49.752;6.094;2023-02-01T01:25:05;8.57;;;5.60;;
13847;SDS011;6994;49.752;6.094;2023-02-01T01:27:32;7.78;;;6.43;;
13847;SDS011;6994;49.752;6.094;2023-02-01T01:30:00;13.75;;;9.45;;
13847;SDS011;6994;49.752;6.094;2023-02-01T01:32:27;12.40;;;7.80;;
13847;SDS011;6994;49.752;6.094;2023-02-01T01:34:54;12.65;;;7.65;;
13847;SDS011;6994;49.752;6.094;2023-02-01T01:37:22;11.60;;;6.70;;
13847;SDS011;6994;49.752;6.094;2023-02-01T01:39:49;12.00;;;6.35;;
13847;SDS011;6994;49.752;6.094;2023-02-01T01:42:16;12.43;;;9.43;;
13847;SDS011;6994;49.752;6.094;2023-02-01T01:45:05;13.93;;;8.02;;
13847;SDS011;6994;49.752;6.094;2023-02-01T01:47:36;11.50;;;7.68;;
13847;SDS011;6994;49.752;6.094;2023-02-01T01:50:05;10.13;;;6.53;;
13847;SDS011;6994;49.752;6.094;2023-02-01T01:52:32;13.62;;;9.15;;
13847;SDS011;6994;49.752;6.094;2023-02-01T01:54:59;9.98;;;6.15;;
13847;SDS011;6994;49.752;6.094;2023-02-01T01:57:27;10.75;;;6.10;;
13847;SDS011;6994;49.752;6.094;2023-02-01T01:59:56;9.18;;;5.57;;
13847;SDS011;6994;49.752;6.094;2023-02-01T02:02:21;9.55;;;6.03;;
13847;SDS011;6994;49.752;6.094;2023-02-01T02:04:48;11.32;;;7.65;;
13847;SDS011;6994;49.752;6.094;2023-02-01T02:07:16;8.45;;;6.28;;
13847;SDS011;6994;49.752;6.094;2023-02-01T02:09:49;10.45;;;5.85;;
13847;SDS011;6994;49.752;6.094;2023-02-01T02:12:16;8.55;;;6.37;;
13847;SDS011;6994;49.752;6.094;2023-02-01T02:14:43;12.55;;;5.15;;
13847;SDS011;6994;49.752;6.094;2023-02-01T02:22:59;5.80;;;3.85;;
13847;SDS011;6994;49.752;6.094;2023-02-01T02:25:46;10.57;;;7.00;;
13847;SDS011;6994;49.752;6.094;2023-02-01T02:30:44;10.77;;;5.75;;
13847;SDS011;6994;49.752;6.094;2023-02-01T02:36:19;11.93;;;7.60;;
13847;SDS011;6994;49.752;6.094;2023-02-01T02:38:58;10.55;;;6.87;;
13847;SDS011;6994;49.752;6.094;2023-02-01T02:41:33;12.05;;;6.10;;
13847;SDS011;6994;49.752;6.094;2023-02-01T02:47:51;9.57;;;4.55;;
13847;SDS011;6994;49.752;6.094;2023-02-01T02:55:57;6.47;;;5.65;;
13847;SDS011;6994;49.752;6.094;2023-02-01T02:58:42;10.27;;;6.18;;
13847;SDS011;6994;49.752;6.094;2023-02-01T03:01:28;10.05;;;7.07;;
13847;SDS011;6994;49.752;6.094;2023-02-01T03:04:13;12.18;;;7.00;;
13847;SDS011;6994;49.752;6.094;2023-02-01T03:06:40;12.55;;;6.57;;
13847;SDS011;6994;49.752;6.094;2023-02-01T03:09:10;11.93;;;5.85;;
13847;SDS011;6994;49.752;6.094;2023-02-01T03:11:36;11.80;;;7.10;;
13847;SDS011;6994;49.752;6.094;2023-02-01T03:14:21;14.63;;;6.75;;
13847;SDS011;6994;49.752;6.094;2023-02-01T03:16:53;11.90;;;7.50;;
13847;SDS011;6994;49.752;6.094;2023-02-01T03:19:24;13.38;;;7.40;;
13847;SDS011;6994;49.752;6.094;2023-02-01T03:21:56;15.90;;;8.30;;
13847;SDS011;6994;49.752;6.094;2023-02-01T03:24:41;12.55;;;7.03;;
13847;SDS011;6994;49.752;6.094;2023-02-01T03:27:13;10.15;;;6.90;;
13847;SDS011;6994;49.752;6.094;2023-02-01T03:29:48;13.57;;;8.65;;
13847;SDS011;6994;49.752;6.094;2023-02-01T03:32:16;11.25;;;7.68;;
13847;SDS011;6994;49.752;6.094;2023-02-01T03:34:43;10.32;;;6.78;;
13847;SDS011;6994;49.752;6.094;2023-02-01T03:37:11;13.18;;;8.90;;
13847;SDS011;6994;49.752;6.094;2023-02-01T03:39:39;14.68;;;7.05;;
13847;SDS011;6994;49.752;6.094;2023-02-01T03:42:16;13.38;;;7.22;;
13847;SDS011;6994;49.752;6.094;2023-02-01T03:44:44;10.75;;;5.95;;
13847;SDS011;6994;49.752;6.094;2023-02-01T03:47:13;13.70;;;6.72;;
13847;SDS011;6994;49.752;6.094;2023-02-01T03:49:37;16.20;;;6.45;;
13847;SDS011;6994;49.752;6.094;2023-02-01T03:52:04;11.07;;;5.90;;
13847;SDS011;6994;49.752;6.094;2023-02-01T03:54:32;10.15;;;6.20;;
13847;SDS011;6994;49.752;6.094;2023-02-01T03:57:01;10.70;;;6.07;;
13847;SDS011;6994;49.752;6.094;2023-02-01T03:59:27;10.98;;;6.00;;
13847;SDS011;6994;49.752;6.094;2023-02-01T04:01:54;12.25;;;6.07;;
13847;SDS011;6994;49.752;6.094;2023-02-01T04:04:22;13.23;;;4.47;;
13847;SDS011;6994;49.752;6.094;2023-02-01T04:06:49;14.60;;;6.20;;
13847;SDS011;6994;49.752;6.094;2023-02-01T04:09:16;12.18;;;7.28;;
13847;SDS011;6994;49.752;6.094;2023-02-01T04:11:43;10.50;;;6.30;;
13847;SDS011;6994;49.752;6.094;2023-02-01T04:14:11;11.73;;;5.40;;
13847;SDS011;6994;49.752;6.094;2023-02-01T04:16:38;10.23;;;5.60;;
13847;SDS011;6994;49.752;6.094;2023-02-01T04:19:05;16.62;;;6.95;;
13847;SDS011;6994;49.752;6.094;2023-02-01T04:21:32;14.00;;;6.12;;
13847;SDS011;6994;49.752;6.094;2023-02-01T04:23:59;10.27;;;5.12;;
13847;SDS011;6994;49.752;6.094;2023-02-01T04:26:27;8.52;;;5.30;;
13847;SDS011;6994;49.752;6.094;2023-02-01T04:28:54;7.60;;;4.30;;
13847;SDS011;6994;49.752;6.094;2023-02-01T04:31:21;9.80;;;5.25;;
13847;SDS011;6994;49.752;6.094;2023-02-01T04:33:48;14.05;;;6.07;;
13847;SDS011;6994;49.752;6.094;2023-02-01T04:36:15;10.02;;;4.70;;
13847;SDS011;6994;49.752;6.094;2023-02-01T04:38:43;9.45;;;4.95;;
13847;SDS011;6994;49.752;6.094;2023-02-01T04:41:10;10.65;;;4.43;;
13847;SDS011;6994;49.752;6.094;2023-02-01T04:43:37;14.55;;;5.28;;
13847;SDS011;6994;49.752;6.094;2023-02-01T04:46:04;13.02;;;5.62;;
13847;SDS011;6994;49.752;6.094;2023-02-01T04:48:31;12.32;;;4.87;;
13847;SDS011;6994;49.752;6.094;2023-02-01T04:50:59;15.73;;;5.35;;
13847;SDS011;6994;49.752;6.094;2023-02-01T04:53:26;12.32;;;4.22;;
13847;SDS011;6994;49.752;6.094;2023-02-01T04:55:53;17.12;;;5.65;;
13847;SDS011;6994;49.752;6.094;2023-02-01T04:58:20;12.18;;;3.78;;
13847;SDS011;6994;49.752;6.094;2023-02-01T05:00:47;16.15;;;3.53;;
13847;SDS011;6994;49.752;6.094;2023-02-01T05:03:15;10.48;;;4.03;;
13847;SDS011;6994;49.752;6.094;2023-02-01T05:05:43;8.15;;;3.40;;
13847;SDS011;6994;49.752;6.094;2023-02-01T05:08:11;8.48;;;3.47;;
13847;SDS011;6994;49.752;6.094;2023-02-01T05:10:38;12.95;;;3.75;;
13847;SDS011;6994;49.752;6.094;2023-02-01T05:13:07;13.32;;;4.00;;
13847;SDS011;6994;49.752;6.094;2023-02-01T05:15:51;10.10;;;2.92;;
13847;SDS011;6994;49.752;6.094;2023-02-01T05:18:18;13.05;;;4.10;;
13847;SDS011;6994;49.752;6.094;2023-02-01T05:20:45;13.35;;;4.15;;
13847;SDS011;6994;49.752;6.094;2023-02-01T05:23:13;14.68;;;3.70;;
13847;SDS011;6994;49.752;6.094;2023-02-01T05:25:40;12.35;;;3.40;;
13847;SDS011;6994;49.752;6.094;2023-02-01T05:28:08;13.52;;;3.47;;
13847;SDS011;6994;49.752;6.094;2023-02-01T05:30:36;16.00;;;3.53;;
13847;SDS011;6994;49.752;6.094;2023-02-01T05:33:03;17.05;;;3.72;;
13847;SDS011;6994;49.752;6.094;2023-02-01T05:35:30;9.43;;;3.05;;
13847;SDS011;6994;49.752;6.094;2023-02-01T05:37:58;13.27;;;3.87;;
13847;SDS011;6994;49.752;6.094;2023-02-01T05:40:26;12.20;;;3.35;;
13847;SDS011;6994;49.752;6.094;2023-02-01T05:42:54;13.25;;;3.25;;
13847;SDS011;6994;49.752;6.094;2023-02-01T05:45:21;16.65;;;4.82;;
13847;SDS011;6994;49.752;6.094;2023-02-01T05:47:48;12.52;;;3.67;;
13847;SDS011;6994;49.752;6.094;2023-02-01T05:50:16;13.93;;;3.22;;
13847;SDS011;6994;49.752;6.094;2023-02-01T05:52:44;10.55;;;2.92;;
13847;SDS011;6994;49.752;6.094;2023-02-01T05:55:11;12.65;;;2.95;;
13847;SDS011;6994;49.752;6.094;2023-02-01T05:57:38;19.42;;;4.07;;
13847;SDS011;6994;49.752;6.094;2023-02-01T06:00:05;11.10;;;2.97;;
13847;SDS011;6994;49.752;6.094;2023-02-01T06:02:33;13.20;;;3.87;;
13847;SDS011;6994;49.752;6.094;2023-02-01T06:05:00;21.35;;;4.30;;
13847;SDS011;6994;49.752;6.094;2023-02-01T06:07:27;9.40;;;3.25;;
13847;SDS011;6994;49.752;6.094;2023-02-01T06:09:54;9.88;;;2.15;;
13847;SDS011;6994;49.752;6.094;2023-02-01T06:12:21;9.77;;;2.97;;
13847;SDS011;6994;49.752;6.094;2023-02-01T06:14:49;15.30;;;2.97;;
13847;SDS011;6994;49.752;6.094;2023-02-01T06:17:16;13.60;;;3.40;;
13847;SDS011;6994;49.752;6.094;2023-02-01T06:19:43;15.10;;;2.85;;
13847;SDS011;6994;49.752;6.094;2023-02-01T06:22:10;11.77;;;3.60;;
13847;SDS011;6994;49.752;6.094;2023-02-01T06:24:37;12.10;;;3.40;;
13847;SDS011;6994;49.752;6.094;2023-02-01T06:27:05;13.80;;;3.33;;
13847;SDS011;6994;49.752;6.094;2023-02-01T06:29:32;15.88;;;4.37;;
13847;SDS011;6994;49.752;6.094;2023-02-01T06:31:59;15.68;;;4.70;;
13847;SDS011;6994;49.752;6.094;2023-02-01T06:34:26;14.90;;;4.45;;
13847;SDS011;6994;49.752;6.094;2023-02-01T06:36:53;16.10;;;3.53;;
13847;SDS011;6994;49.752;6.094;2023-02-01T06:39:21;15.02;;;3.92;;
13847;SDS011;6994;49.752;6.094;2023-02-01T06:41:48;12.68;;;3.05;;
13847;SDS011;6994;49.752;6.094;2023-02-01T06:44:15;19.75;;;3.20;;
13847;SDS011;6994;49.752;6.094;2023-02-01T06:46:42;14.50;;;2.62;;
13847;SDS011;6994;49.752;6.094;2023-02-01T06:49:10;9.55;;;2.83;;
13847;SDS011;6994;49.752;6.094;2023-02-01T06:51:38;11.60;;;1.98;;
13847;SDS011;6994;49.752;6.094;2023-02-01T06:54:06;12.00;;;3.17;;
13847;SDS011;6994;49.752;6.094;2023-02-01T06:56:34;18.75;;;3.33;;
13847;SDS011;6994;49.752;6.094;2023-02-01T06:59:09;15.77;;;3.15;;
13847;SDS011;6994;49.752;6.094;2023-02-01T07:01:33;14.10;;;2.92;;
13847;SDS011;6994;49.752;6.094;2023-02-01T07:04:01;12.75;;;3.10;;
13847;SDS011;6994;49.752;6.094;2023-02-01T07:06:29;10.23;;;3.10;;
13847;SDS011;6994;49.752;6.094;2023-02-01T07:08:57;20.30;;;3.65;;
13847;SDS011;6994;49.752;6.094;2023-02-01T07:11:25;13.40;;;3.35;;
13847;SDS011;6994;49.752;6.094;2023-02-01T07:13:53;12.85;;;3.00;;
13847;SDS011;6994;49.752;6.094;2023-02-01T07:16:21;11.00;;;2.58;;
13847;SDS011;6994;49.752;6.094;2023-02-01T07:18:49;15.52;;;3.90;;
13847;SDS011;6994;49.752;6.094;2023-02-01T07:21:15;12.70;;;2.80;;
13847;SDS011;6994;49.752;6.094;2023-02-01T07:23:43;13.38;;;2.08;;
13847;SDS011;6994;49.752;6.094;2023-02-01T07:26:12;14.95;;;5.12;;
13847;SDS011;6994;49.752;6.094;2023-02-01T07:28:39;15.20;;;3.42;;
13847;SDS011;6994;49.752;6.094;2023-02-01T07:31:07;9.52;;;2.97;;
13847;SDS011;6994;49.752;6.094;2023-02-01T07:33:33;14.95;;;3.83;;
13847;SDS011;6994;49.752;6.094;2023-02-01T07:36:02;15.52;;;2.60;;
13847;SDS011;6994;49.752;6.094;2023-02-01T07:38:28;16.08;;;5.72;;
13847;SDS011;6994;49.752;6.094;2023-02-01T07:40:58;16.12;;;4.18;;
13847;SDS011;6994;49.752;6.094;2023-02-01T07:43:25;15.95;;;3.55;;
13847;SDS011;6994;49.752;6.094;2023-02-01T07:45:52;20.35;;;3.42;;
13847;SDS011;6994;49.752;6.094;2023-02-01T07:48:20;18.58;;;3.60;;
13847;SDS011;6994;49.752;6.094;2023-02-01T07:50:46;11.18;;;2.97;;
13847;SDS011;6994;49.752;6.094;2023-02-01T07:53:14;14.23;;;3.75;;
13847;SDS011;6994;49.752;6.094;2023-02-01T07:55:41;15.18;;;4.03;;
13847;SDS011;6994;49.752;6.094;2023-02-01T07:58:08;19.92;;;3.42;;
13847;SDS011;6994;49.752;6.094;2023-02-01T08:00:35;11.38;;;2.70;;
13847;SDS011;6994;49.752;6.094;2023-02-01T08:03:21;19.90;;;3.78;;
13847;SDS011;6994;49.752;6.094;2023-02-01T08:05:53;16.87;;;3.92;;
13847;SDS011;6994;49.752;6.094;2023-02-01T08:08:16;11.18;;;3.08;;
13847;SDS011;6994;49.752;6.094;2023-02-01T08:10:43;11.18;;;3.30;;
13847;SDS011;6994;49.752;6.094;2023-02-01T08:13:10;13.73;;;3.15;;
13847;SDS011;6994;49.752;6.094;2023-02-01T08:15:37;11.90;;;3.28;;
13847;SDS011;6994;49.752;6.094;2023-02-01T08:18:04;16.40;;;2.90;;
13847;SDS011;6994;49.752;6.094;2023-02-01T08:20:32;17.77;;;3.92;;
13847;SDS011;6994;49.752;6.094;2023-02-01T08:22:59;12.15;;;3.05;;
13847;SDS011;6994;49.752;6.094;2023-02-01T08:25:26;17.87;;;4.28;;
13847;SDS011;6994;49.752;6.094;2023-02-01T08:27:53;12.02;;;3.47;;
13847;SDS011;6994;49.752;6.094;2023-02-01T08:30:20;10.23;;;2.80;;
13847;SDS011;6994;49.752;6.094;2023-02-01T08:32:48;13.13;;;3.25;;
13847;SDS011;6994;49.752;6.094;2023-02-01T08:35:15;19.42;;;3.30;;
13847;SDS011;6994;49.752;6.094;2023-02-01T08:37:42;10.93;;;2.90;;
13847;SDS011;6994;49.752;6.094;2023-02-01T08:40:09;17.17;;;3.72;;
13847;SDS011;6994;49.752;6.094;2023-02-01T08:42:36;13.27;;;3.37;;
13847;SDS011;6994;49.752;6.094;2023-02-01T08:47:46;13.30;;;2.92;;
13847;SDS011;6994;49.752;6.094;2023-02-01T08:50:13;19.58;;;4.97;;
13847;SDS011;6994;49.752;6.094;2023-02-01T08:52:41;10.93;;;3.20;;
13847;SDS011;6994;49.752;6.094;2023-02-01T08:55:08;18.73;;;4.55;;
13847;SDS011;6994;49.752;6.094;2023-02-01T08:57:35;14.30;;;3.42;;
13847;SDS011;6994;49.752;6.094;2023-02-01T09:00:03;9.55;;;3.03;;
13847;SDS011;6994;49.752;6.094;2023-02-01T09:02:29;16.45;;;3.60;;
13847;SDS011;6994;49.752;6.094;2023-02-01T09:04:57;15.32;;;3.92;;
13847;SDS011;6994;49.752;6.094;2023-02-01T09:07:24;7.22;;;2.83;;
13847;SDS011;6994;49.752;6.094;2023-02-01T09:09:51;11.98;;;2.87;;
13847;SDS011;6994;49.752;6.094;2023-02-01T09:12:18;12.27;;;2.92;;
13847;SDS011;6994;49.752;6.094;2023-02-01T09:14:45;16.40;;;4.40;;
13847;SDS011;6994;49.752;6.094;2023-02-01T09:17:13;16.75;;;3.25;;
13847;SDS011;6994;49.752;6.094;2023-02-01T09:19:40;10.20;;;2.80;;
13847;SDS011;6994;49.752;6.094;2023-02-01T09:22:07;12.10;;;2.58;;
13847;SDS011;6994;49.752;6.094;2023-02-01T09:24:34;16.20;;;2.83;;
13847;SDS011;6994;49.752;6.094;2023-02-01T09:27:02;12.52;;;3.22;;
13847;SDS011;6994;49.752;6.094;2023-02-01T09:29:30;16.37;;;3.33;;
13847;SDS011;6994;49.752;6.094;2023-02-01T09:31:57;16.20;;;4.00;;
13847;SDS011;6994;49.752;6.094;2023-02-01T09:34:24;10.40;;;3.03;;
13847;SDS011;6994;49.752;6.094;2023-02-01T09:36:52;12.27;;;2.87;;
13847;SDS011;6994;49.752;6.094;2023-02-01T09:39:20;9.20;;;2.90;;
13847;SDS011;6994;49.752;6.094;2023-02-01T09:44:45;15.77;;;3.47;;
13847;SDS011;6994;49.752;6.094;2023-02-01T09:47:22;11.80;;;2.40;;
13847;SDS011;6994;49.752;6.094;2023-02-01T09:49:52;11.12;;;3.25;;
13847;SDS011;6994;49.752;6.094;2023-02-01T09:52:15;13.90;;;4.12;;
13847;SDS011;6994;49.752;6.094;2023-02-01T09:54:46;12.98;;;3.03;;
13847;SDS011;6994;49.752;6.094;2023-02-01T09:57:16;12.85;;;3.20;;
13847;SDS011;6994;49.752;6.094;2023-02-01T09:59:43;13.38;;;2.25;;
13847;SDS011;6994;49.752;6.094;2023-02-01T10:04:40;11.32;;;2.78;;
13847;SDS011;6994;49.752;6.094;2023-02-01T10:07:22;9.23;;;2.65;;
13847;SDS011;6994;49.752;6.094;2023-02-01T10:10:00;14.00;;;3.43;;
13847;SDS011;6994;49.752;6.094;2023-02-01T10:18:15;13.60;;;3.50;;
13847;SDS011;6994;49.752;6.094;2023-02-01T10:20:56;11.75;;;2.45;;
13847;SDS011;6994;49.752;6.094;2023-02-01T10:28:40;7.80;;;1.80;;
13847;SDS011;6994;49.752;6.094;2023-02-01T10:31:08;16.00;;;3.33;;
13847;SDS011;6994;49.752;6.094;2023-02-01T10:33:43;7.07;;;2.20;;
13847;SDS011;6994;49.752;6.094;2023-02-01T10:36:32;10.88;;;3.20;;
13847;SDS011;6994;49.752;6.094;2023-02-01T10:39:08;15.80;;;3.40;;
13847;SDS011;6994;49.752;6.094;2023-02-01T10:41:38;11.23;;;2.75;;
13847;SDS011;6994;49.752;6.094;2023-02-01T10:44:10;10.32;;;2.90;;
13847;SDS011;6994;49.752;6.094;2023-02-01T10:46:34;12.77;;;2.45;;
13847;SDS011;6994;49.752;6.094;2023-02-01T10:49:02;8.55;;;1.80;;
13847;SDS011;6994;49.752;6.094;2023-02-01T10:54:11;18.08;;;3.28;;
13847;SDS011;6994;49.752;6.094;2023-02-01T10:56:38;8.93;;;1.37;;
13847;SDS011;6994;49.752;6.094;2023-02-01T10:59:06;16.67;;;2.65;;
13847;SDS011;6994;49.752;6.094;2023-02-01T11:01:42;11.00;;;2.25;;
13847;SDS011;6994;49.752;6.094;2023-02-01T11:04:19;9.32;;;2.33;;
13847;SDS011;6994;49.752;6.094;2023-02-01T11:06:53;13.27;;;2.75;;
13847;SDS011;6994;49.752;6.094;2023-02-01T11:14:19;10.50;;;1.70;;
13847;SDS011;6994;49.752;6.094;2023-02-01T11:16:49;12.00;;;2.42;;
13847;SDS011;6994;49.752;6.094;2023-02-01T11:19:15;11.15;;;2.90;;
13847;SDS011;6994;49.752;6.094;2023-02-01T11:21:43;11.88;;;2.65;;
13847;SDS011;6994;49.752;6.094;2023-02-01T11:24:44;8.45;;;2.60;;
13847;SDS011;6994;49.752;6.094;2023-02-01T11:26:49;9.75;;;2.33;;
13847;SDS011;6994;49.752;6.094;2023-02-01T11:29:17;9.93;;;2.37;;
13847;SDS011;6994;49.752;6.094;2023-02-01T11:31:45;10.38;;;2.55;;
13847;SDS011;6994;49.752;6.094;2023-02-01T11:34:20;13.73;;;2.85;;
13847;SDS011;6994;49.752;6.094;2023-02-01T11:36:42;10.98;;;2.17;;
13847;SDS011;6994;49.752;6.094;2023-02-01T11:39:17;16.62;;;3.87;;
13847;SDS011;6994;49.752;6.094;2023-02-01T11:41:41;12.43;;;2.62;;
13847;SDS011;6994;49.752;6.094;2023-02-01T11:44:20;16.65;;;2.37;;
13847;SDS011;6994;49.752;6.094;2023-02-01T11:46:46;15.55;;;2.97;;
13847;SDS011;6994;49.752;6.094;2023-02-01T11:49:19;15.73;;;3.42;;
13847;SDS011;6994;49.752;6.094;2023-02-01T11:51:50;10.82;;;2.22;;
13847;SDS011;6994;49.752;6.094;2023-02-01T11:54:33;11.52;;;2.87;;
13847;SDS011;6994;49.752;6.094;2023-02-01T11:57:25;8.32;;;2.90;;
13847;SDS011;6994;49.752;6.094;2023-02-01T11:59:55;13.75;;;3.58;;
13847;SDS011;6994;49.752;6.094;2023-02-01T12:02:32;7.57;;;2.00;;
13847;SDS011;6994;49.752;6.094;2023-02-01T12:05:08;13.90;;;2.30;;
13847;SDS011;6994;49.752;6.094;2023-02-01T12:12:58;17.70;;;2.37;;
13847;SDS011;6994;49.752;6.094;2023-02-01T12:23:09;9.90;;;1.77;;
13847;SDS011;6994;49.752;6.094;2023-02-01T12:28:33;12.57;;;3.58;;
13847;SDS011;6994;49.752;6.094;2023-02-01T12:31:07;12.40;;;2.85;;
13847;SDS011;6994;49.752;6.094;2023-02-01T12:33:37;19.87;;;3.33;;
13847;SDS011;6994;49.752;6.094;2023-02-01T12:36:24;15.27;;;4.07;;
13847;SDS011;6994;49.752;6.094;2023-02-01T12:38:56;8.57;;;1.80;;
13847;SDS011;6994;49.752;6.094;2023-02-01T12:43:54;7.97;;;2.15;;
13847;SDS011;6994;49.752;6.094;2023-02-01T12:46:31;19.23;;;3.03;;
13847;SDS011;6994;49.752;6.094;2023-02-01T12:49:12;10.20;;;2.50;;
13847;SDS011;6994;49.752;6.094;2023-02-01T12:51:39;11.18;;;2.83;;
13847;SDS011;6994;49.752;6.094;2023-02-01T12:54:13;7.32;;;2.10;;
13847;SDS011;6994;49.752;6.094;2023-02-01T12:56:43;9.40;;;2.22;;
13847;SDS011;6994;49.752;6.094;2023-02-01T12:59:17;11.52;;;2.78;;
13847;SDS011;6994;49.752;6.094;2023-02-01T13:01:56;8.90;;;1.90;;
13847;SDS011;6994;49.752;6.094;2023-02-01T13:04:26;7.45;;;2.28;;
13847;SDS011;6994;49.752;6.094;2023-02-01T13:07:09;12.68;;;3.10;;
13847;SDS011;6994;49.752;6.094;2023-02-01T13:09:47;11.48;;;2.72;;
13847;SDS011;6994;49.752;6.094;2023-02-01T13:12:19;13.10;;;3.08;;
13847;SDS011;6994;49.752;6.094;2023-02-01T13:14:44;13.82;;;3.17;;
13847;SDS011;6994;49.752;6.094;2023-02-01T13:17:28;12.68;;;2.25;;
13847;SDS011;6994;49.752;6.094;2023-02-01T13:25:02;10.52;;;3.50;;
13847;SDS011;6994;49.752;6.094;2023-02-01T13:27:36;13.75;;;3.22;;
13847;SDS011;6994;49.752;6.094;2023-02-01T13:35:40;10.13;;;2.03;;
13847;SDS011;6994;49.752;6.094;2023-02-01T13:44:21;13.65;;;2.90;;
13847;SDS011;6994;49.752;6.094;2023-02-01T13:46:43;12.93;;;2.92;;
13847;SDS011;6994;49.752;6.094;2023-02-01T13:49:16;17.58;;;2.78;;
13847;SDS011;6994;49.752;6.094;2023-02-01T13:51:43;17.35;;;2.60;;
13847;SDS011;6994;49.752;6.094;2023-02-01T13:54:56;8.52;;;1.95;;
13847;SDS011;6994;49.752;6.094;2023-02-01T13:56:55;4.47;;;1.60;;
13847;SDS011;6994;49.752;6.094;2023-02-01T14:05:04;7.65;;;2.17;;
13847;SDS011;6994;49.752;6.094;2023-02-01T14:07:31;12.70;;;1.83;;
13847;SDS011;6994;49.752;6.094;2023-02-01T14:10:33;9.70;;;1.80;;
13847;SDS011;6994;49.752;6.094;2023-02-01T14:12:42;10.35;;;2.35;;
13847;SDS011;6994;49.752;6.094;2023-02-01T14:15:22;6.80;;;1.98;;
13847;SDS011;6994;49.752;6.094;2023-02-01T14:17:48;6.80;;;2.10;;
13847;SDS011;6994;49.752;6.094;2023-02-01T14:23:04;12.20;;;2.35;;
13847;SDS011;6994;49.752;6.094;2023-02-01T14:25:32;7.03;;;1.83;;
13847;SDS011;6994;49.752;6.094;2023-02-01T14:28:01;11.98;;;2.37;;
13847;SDS011;6994;49.752;6.094;2023-02-01T14:30:28;13.70;;;3.53;;
13847;SDS011;6994;49.752;6.094;2023-02-01T14:32:56;11.32;;;2.50;;
13847;SDS011;6994;49.752;6.094;2023-02-01T14:35:26;11.48;;;2.55;;
13847;SDS011;6994;49.752;6.094;2023-02-01T14:37:58;7.18;;;2.58;;
13847;SDS011;6994;49.752;6.094;2023-02-01T14:40:23;6.40;;;2.03;;
13847;SDS011;6994;49.752;6.094;2023-02-01T14:42:48;10.35;;;3.03;;
13847;SDS011;6994;49.752;6.094;2023-02-01T14:47:48;11.18;;;2.50;;
13847;SDS011;6994;49.752;6.094;2023-02-01T14:55:57;7.28;;;1.98;;
13847;SDS011;6994;49.752;6.094;2023-02-01T15:03:54;13.90;;;3.00;;
13847;SDS011;6994;49.752;6.094;2023-02-01T15:06:41;9.63;;;2.50;;
13847;SDS011;6994;49.752;6.094;2023-02-01T15:09:11;14.53;;;2.90;;
13847;SDS011;6994;49.752;6.094;2023-02-01T15:11:54;13.30;;;3.15;;
13847;SDS011;6994;49.752;6.094;2023-02-01T15:14:23;14.38;;;2.12;;
13847;SDS011;6994;49.752;6.094;2023-02-01T15:16:50;11.68;;;3.15;;
13847;SDS011;6994;49.752;6.094;2023-02-01T15:19:17;14.18;;;2.80;;
13847;SDS011;6994;49.752;6.094;2023-02-01T15:21:51;9.10;;;2.30;;
13847;SDS011;6994;49.752;6.094;2023-02-01T15:24:14;12.18;;;2.50;;
13847;SDS011;6994;49.752;6.094;2023-02-01T15:26:40;11.20;;;2.08;;
13847;SDS011;6994;49.752;6.094;2023-02-01T15:29:11;19.02;;;2.47;;
13847;SDS011;6994;49.752;6.094;2023-02-01T15:34:08;13.50;;;2.60;;
13847;SDS011;6994;49.752;6.094;2023-02-01T15:36:35;7.00;;;2.00;;
13847;SDS011;6994;49.752;6.094;2023-02-01T15:39:12;8.70;;;2.12;;
13847;SDS011;6994;49.752;6.094;2023-02-01T15:41:38;10.93;;;2.67;;
13847;SDS011;6994;49.752;6.094;2023-02-01T15:44:52;10.60;;;1.77;;
13847;SDS011;6994;49.752;6.094;2023-02-01T15:46:45;7.25;;;2.28;;
13847;SDS011;6994;49.752;6.094;2023-02-01T15:49:26;13.55;;;3.37;;
13847;SDS011;6994;49.752;6.094;2023-02-01T15:51:52;10.75;;;2.15;;
13847;SDS011;6994;49.752;6.094;2023-02-01T15:54:20;15.02;;;2.65;;
13847;SDS011;6994;49.752;6.094;2023-02-01T15:56:50;13.93;;;1.83;;
13847;SDS011;6994;49.752;6.094;2023-02-01T15:59:16;10.20;;;2.15;;
13847;SDS011;6994;49.752;6.094;2023-02-01T16:01:43;11.73;;;2.20;;
13847;SDS011;6994;49.752;6.094;2023-02-01T16:04:21;10.15;;;2.47;;
13847;SDS011;6994;49.752;6.094;2023-02-01T16:06:51;8.77;;;2.37;;
13847;SDS011;6994;49.752;6.094;2023-02-01T16:09:24;9.27;;;1.65;;
13847;SDS011;6994;49.752;6.094;2023-02-01T16:11:58;7.70;;;2.05;;
13847;SDS011;6994;49.752;6.094;2023-02-01T16:14:25;10.35;;;2.58;;
13847;SDS011;6994;49.752;6.094;2023-02-01T16:16:54;8.75;;;2.08;;
13847;SDS011;6994;49.752;6.094;2023-02-01T16:19:21;14.02;;;2.50;;
13847;SDS011;6994;49.752;6.094;2023-02-01T16:21:49;14.20;;;2.90;;
13847;SDS011;6994;49.752;6.094;2023-02-01T16:24:17;10.57;;;2.53;;
13847;SDS011;6994;49.752;6.094;2023-02-01T16:26:44;8.90;;;3.00;;
13847;SDS011;6994;49.752;6.094;2023-02-01T16:29:11;16.77;;;3.12;;
13847;SDS011;6994;49.752;6.094;2023-02-01T16:31:39;9.98;;;2.67;;
13847;SDS011;6994;49.752;6.094;2023-02-01T16:34:09;15.13;;;3.72;;
13847;SDS011;6994;49.752;6.094;2023-02-01T16:36:33;11.63;;;2.40;;
13847;SDS011;6994;49.752;6.094;2023-02-01T16:39:01;11.88;;;2.80;;
13847;SDS011;6994;49.752;6.094;2023-02-01T16:41:28;12.48;;;4.85;;
13847;SDS011;6994;49.752;6.094;2023-02-01T16:43:55;15.30;;;3.40;;
13847;SDS011;6994;49.752;6.094;2023-02-01T16:46:23;12.25;;;2.78;;
13847;SDS011;6994;49.752;6.094;2023-02-01T16:48:51;11.77;;;2.90;;
13847;SDS011;6994;49.752;6.094;2023-02-01T16:51:17;11.63;;;2.22;;